Time;durP1;ratioP1;P1;durP2;ratioP2;P2;SDS_P1;SDS_P2;PMS_P1;PMS_P2;Temp;Humidity;BMP_temperature;BMP_pressure;BME280_temperature;BME280_humidity;BME280_pressure;Samples;Min_cycle;Max_cycle;Signal;HPM_P1;HPM_P2
2022/09/18 00:02:03;;;;;;;59.37;17.53;;;;;;;;;;5003681;28;20620;-53
2022/09/18 00:04:29;;;;;;;130.63;34.10;;;;;;;;;;4993428;28;20239;-54
2022/09/18 00:06:55;;;;;;;96.87;27.17;;;;;;;;;;4996085;28;20423;-54
2022/09/18 00:09:21;;;;;;;111.30;29.33;;;;;;;;;;5005725;28;20230;-54
2022/09/18 00:11:48;;;;;;;92.47;26.27;;;;;;;;;;4997602;28;20204;-54
2022/09/18 00:14:16;;;;;;;170.93;44.13;;;;;;;;;;5009609;28;20210;-53
2022/09/18 00:16:42;;;;;;;143.30;35.63;;;;;;;;;;4999496;28;20177;-53
2022/09/18 00:19:09;;;;;;;223.20;55.73;;;;;;;;;;5004329;28;20265;-54
2022/09/18 00:21:36;;;;;;;101.33;26.43;;;;;;;;;;5007563;28;20525;-53
2022/09/18 00:24:03;;;;;;;164.53;44.10;;;;;;;;;;4994914;28;20266;-53
2022/09/18 00:26:29;;;;;;;158.57;40.90;;;;;;;;;;5008758;28;20187;-54
2022/09/18 00:28:55;;;;;;;154.33;39.63;;;;;;;;;;5002895;28;20271;-54
2022/09/18 00:31:26;;;;;;;81.57;23.37;;;;;;;;;;5006527;28;20208;-53
2022/09/18 00:33:53;;;;;;;150.50;38.37;;;;;;;;;;5007549;28;20646;-54
2022/09/18 00:36:19;;;;;;;144.07;37.93;;;;;;;;;;5003239;28;20188;-54
2022/09/18 00:38:46;;;;;;;160.60;41.83;;;;;;;;;;5001141;28;20595;-54
2022/09/18 00:41:13;;;;;;;115.27;31.20;;;;;;;;;;5014618;28;20283;-54
2022/09/18 00:43:39;;;;;;;115.57;29.90;;;;;;;;;;5015716;28;20556;-54
2022/09/18 00:46:14;;;;;;;141.27;34.47;;;;;;;;;;5004862;28;20189;-54
2022/09/18 00:48:49;;;;;;;140.43;34.87;;;;;;;;;;5009160;28;20254;-53
2022/09/18 00:51:16;;;;;;;79.30;21.33;;;;;;;;;;5009746;28;20367;-53
2022/09/18 00:53:46;;;;;;;144.97;36.20;;;;;;;;;;4999119;28;22562;-54
2022/09/18 00:56:14;;;;;;;128.40;34.83;;;;;;;;;;5004667;28;20184;-54
2022/09/18 00:58:40;;;;;;;116.50;31.40;;;;;;;;;;5010284;28;20730;-54
2022/09/18 01:01:07;;;;;;;122.13;75.43;;;;;;;;;;5015598;28;20196;-54
2022/09/18 01:03:34;;;;;;;134.13;61.07;;;;;;;;;;5000484;28;20901;-53
2022/09/18 01:06:03;;;;;;;176.93;73.57;;;;;;;;;;5007248;28;20208;-53
2022/09/18 01:08:44;;;;;;;163.23;71.10;;;;;;;;;;5004189;28;20191;-54
2022/09/18 01:11:22;;;;;;;120.20;58.53;;;;;;;;;;5011266;28;20200;-53
2022/09/18 01:13:48;;;;;;;224.57;85.40;;;;;;;;;;5000593;28;20184;-54
2022/09/18 01:16:14;;;;;;;54.93;43.00;;;;;;;;;;5009474;28;20294;-54
2022/09/18 01:18:46;;;;;;;127.13;63.07;;;;;;;;;;5024858;28;20258;-54
2022/09/18 01:21:13;;;;;;;95.50;53.90;;;;;;;;;;5012180;28;20184;-53
2022/09/18 01:24:03;;;;;;;112.00;56.43;;;;;;;;;;5002008;28;20272;-54
2022/09/18 01:26:31;;;;;;;116.97;55.20;;;;;;;;;;5012187;28;20502;-54
2022/09/18 01:29:21;;;;;;;211.93;80.53;;;;;;;;;;5002426;28;20792;-54
2022/09/18 01:31:51;;;;;;;216.67;83.00;;;;;;;;;;5007515;28;20472;-53
2022/09/18 01:34:23;;;;;;;152.90;65.63;;;;;;;;;;5001159;28;20274;-53
2022/09/18 01:36:51;;;;;;;184.37;75.70;;;;;;;;;;5013406;28;20899;-53
2022/09/18 01:39:22;;;;;;;100.33;50.10;;;;;;;;;;4999369;28;20323;-54
2022/09/18 01:41:50;;;;;;;201.40;78.40;;;;;;;;;;5007607;28;20248;-54
2022/09/18 01:44:18;;;;;;;124.20;59.50;;;;;;;;;;5009750;28;20235;-54
2022/09/18 01:46:44;;;;;;;173.93;73.47;;;;;;;;;;4998640;28;20197;-54
2022/09/18 01:49:16;;;;;;;158.70;69.37;;;;;;;;;;5007726;28;20910;-54
2022/09/18 01:51:46;;;;;;;111.20;58.40;;;;;;;;;;5010616;28;20247;-53
2022/09/18 01:54:17;;;;;;;192.37;76.60;;;;;;;;;;4998209;28;20196;-53
2022/09/18 01:57:07;;;;;;;180.90;73.27;;;;;;;;;;5003380;28;20285;-54
2022/09/18 01:59:38;;;;;;;167.70;69.83;;;;;;;;;;4992724;28;20196;-54
2022/09/18 02:02:07;;;;;;;117.47;57.73;;;;;;;;;;5013130;28;20197;-54
2022/09/18 02:04:34;;;;;;;120.30;60.27;;;;;;;;;;5006631;28;20326;-54
2022/09/18 02:07:04;;;;;;;119.37;63.03;;;;;;;;;;5010989;28;20508;-54
2022/09/18 02:09:30;;;;;;;120.27;57.43;;;;;;;;;;5011755;28;20270;-53
2022/09/18 02:11:57;;;;;;;103.60;57.90;;;;;;;;;;5008849;28;20731;-54
2022/09/18 02:14:27;;;;;;;149.97;68.63;;;;;;;;;;4995938;28;20342;-54
2022/09/18 02:16:56;;;;;;;120.63;61.73;;;;;;;;;;5005963;28;20191;-54
2022/09/18 02:19:25;;;;;;;106.93;57.43;;;;;;;;;;5009298;28;20211;-53
2022/09/18 02:21:52;;;;;;;139.77;64.27;;;;;;;;;;5000482;28;20181;-54
2022/09/18 02:24:20;;;;;;;132.47;62.57;;;;;;;;;;5005510;28;20653;-54
2022/09/18 02:26:47;;;;;;;126.73;61.30;;;;;;;;;;4998099;28;20189;-53
2022/09/18 02:29:14;;;;;;;204.80;82.30;;;;;;;;;;5000621;28;20192;-54
2022/09/18 02:31:40;;;;;;;143.43;65.33;;;;;;;;;;5004742;28;20863;-54
2022/09/18 02:34:07;;;;;;;311.20;109.27;;;;;;;;;;5011547;28;20561;-54
2022/09/18 02:36:52;;;;;;;122.60;60.90;;;;;;;;;;5012674;28;20267;-53
2022/09/18 02:39:27;;;;;;;112.67;57.47;;;;;;;;;;5009271;28;21790;-53
2022/09/18 02:42:05;;;;;;;127.80;62.33;;;;;;;;;;5010541;28;20224;-53
2022/09/18 02:44:50;;;;;;;108.47;57.07;;;;;;;;;;5018134;28;20211;-53
2022/09/18 02:47:25;;;;;;;178.60;72.23;;;;;;;;;;5001607;28;20192;-54
2022/09/18 02:49:59;;;;;;;133.13;61.93;;;;;;;;;;5002987;28;20603;-53
2022/09/18 02:52:55;;;;;;;122.40;57.03;;;;;;;;;;5006941;28;20184;-54
2022/09/18 02:55:24;;;;;;;139.60;58.57;;;;;;;;;;4952923;28;20214;-54
2022/09/18 02:57:57;;;;;;;124.20;60.10;;;;;;;;;;5005423;28;20191;-56
2022/09/18 03:00:24;;;;;;;203.30;78.30;;;;;;;;;;5001752;28;20342;-54
2022/09/18 03:02:50;;;;;;;187.03;75.37;;;;;;;;;;4999527;28;20628;-53
2022/09/18 03:05:17;;;;;;;154.47;68.90;;;;;;;;;;5008704;28;20216;-53
2022/09/18 03:07:43;;;;;;;102.63;57.33;;;;;;;;;;5021006;28;20187;-53
2022/09/18 03:10:11;;;;;;;165.80;73.67;;;;;;;;;;5008443;28;20207;-54
2022/09/18 03:12:37;;;;;;;134.27;63.97;;;;;;;;;;5008422;28;20211;-54
2022/09/18 03:15:03;;;;;;;128.27;62.33;;;;;;;;;;5014593;28;20204;-53
2022/09/18 03:17:29;;;;;;;140.70;63.80;;;;;;;;;;5013176;28;20225;-54
2022/09/18 03:19:55;;;;;;;186.87;80.10;;;;;;;;;;5003632;28;20653;-54
2022/09/18 03:22:21;;;;;;;173.23;74.20;;;;;;;;;;5011540;28;20188;-54
2022/09/18 03:24:47;;;;;;;168.83;71.53;;;;;;;;;;4999313;28;20823;-54
2022/09/18 03:27:13;;;;;;;102.37;55.30;;;;;;;;;;5007438;28;20191;-54
2022/09/18 03:29:39;;;;;;;120.13;59.17;;;;;;;;;;5010025;28;20236;-54
2022/09/18 03:32:05;;;;;;;137.37;65.10;;;;;;;;;;5012030;28;20181;-54
2022/09/18 03:34:31;;;;;;;212.57;83.73;;;;;;;;;;5011795;28;20211;-54
2022/09/18 03:36:57;;;;;;;121.77;58.37;;;;;;;;;;5008064;28;20184;-53
2022/09/18 03:39:23;;;;;;;191.40;76.83;;;;;;;;;;4997125;28;20191;-53
2022/09/18 03:41:49;;;;;;;163.70;68.53;;;;;;;;;;5008054;28;20653;-53
2022/09/18 03:44:15;;;;;;;121.17;57.07;;;;;;;;;;5016457;28;20334;-54
2022/09/18 03:46:40;;;;;;;172.90;71.37;;;;;;;;;;4991527;28;20312;-53
2022/09/18 03:49:07;;;;;;;169.17;69.13;;;;;;;;;;5005134;28;20218;-54
2022/09/18 03:51:33;;;;;;;106.10;52.53;;;;;;;;;;5004623;28;20224;-53
2022/09/18 03:54:00;;;;;;;170.30;71.93;;;;;;;;;;5005207;28;20211;-54
2022/09/18 03:56:25;;;;;;;93.83;52.30;;;;;;;;;;5006782;28;20267;-54
2022/09/18 03:58:52;;;;;;;102.90;53.20;;;;;;;;;;5011786;28;20181;-53
2022/09/18 04:01:18;;;;;;;107.33;51.77;;;;;;;;;;5014415;28;20669;-53
2022/09/18 04:03:44;;;;;;;137.73;56.50;;;;;;;;;;5008875;28;20693;-53
2022/09/18 04:06:11;;;;;;;188.40;68.20;;;;;;;;;;5001086;28;20268;-53
2022/09/18 04:08:37;;;;;;;154.80;58.40;;;;;;;;;;5015936;28;20192;-54
2022/09/18 04:11:03;;;;;;;120.57;60.23;;;;;;;;;;5013304;28;20208;-54
2022/09/18 04:13:29;;;;;;;142.03;68.20;;;;;;;;;;5001481;28;20183;-53
2022/09/18 04:15:55;;;;;;;177.00;79.50;;;;;;;;;;5004301;28;20253;-53
2022/09/18 04:18:21;;;;;;;112.00;57.87;;;;;;;;;;5011731;28;20707;-53
2022/09/18 04:20:47;;;;;;;178.70;75.10;;;;;;;;;;5011626;28;20231;-53
2022/09/18 04:23:13;;;;;;;146.27;65.07;;;;;;;;;;5021381;28;20184;-53
2022/09/18 04:25:42;;;;;;;136.67;65.10;;;;;;;;;;5020082;28;20296;-53
2022/09/18 04:28:08;;;;;;;145.80;62.30;;;;;;;;;;5015221;28;20184;-53
2022/09/18 04:30:34;;;;;;;141.43;64.10;;;;;;;;;;5016922;28;20266;-53
2022/09/18 04:33:01;;;;;;;118.33;56.50;;;;;;;;;;5014375;28;20673;-53
2022/09/18 04:35:27;;;;;;;142.17;65.27;;;;;;;;;;5005320;28;20204;-54
2022/09/18 04:37:53;;;;;;;95.10;51.30;;;;;;;;;;5017657;28;20192;-54
2022/09/18 04:40:19;;;;;;;126.00;59.37;;;;;;;;;;5011619;28;20176;-53
2022/09/18 04:42:45;;;;;;;170.87;72.97;;;;;;;;;;5012642;28;20258;-53
2022/09/18 04:45:11;;;;;;;264.47;93.87;;;;;;;;;;4999115;28;20200;-54
2022/09/18 04:47:37;;;;;;;206.30;79.57;;;;;;;;;;5004848;28;20239;-53
2022/09/18 04:50:07;;;;;;;164.90;69.73;;;;;;;;;;5015539;28;20214;-53
2022/09/18 04:52:33;;;;;;;123.47;54.57;;;;;;;;;;5013837;28;20673;-53
2022/09/18 04:54:59;;;;;;;88.43;48.83;;;;;;;;;;5012120;28;20219;-53
2022/09/18 04:57:25;;;;;;;134.90;59.97;;;;;;;;;;5013316;28;20211;-53
2022/09/18 04:59:51;;;;;;;123.87;55.00;;;;;;;;;;5014333;28;20223;-53
2022/09/18 05:02:18;;;;;;;112.90;53.40;;;;;;;;;;5019672;28;20191;-53
2022/09/18 05:04:44;;;;;;;172.33;67.33;;;;;;;;;;5012302;28;20200;-53
2022/09/18 05:07:10;;;;;;;131.43;57.43;;;;;;;;;;5019544;28;20180;-53
2022/09/18 05:09:36;;;;;;;140.73;60.87;;;;;;;;;;5016194;28;20181;-53
2022/09/18 05:12:02;;;;;;;129.97;60.73;;;;;;;;;;5010591;28;20204;-53
2022/09/18 05:14:28;;;;;;;130.50;59.63;;;;;;;;;;5014502;28;20262;-53
2022/09/18 05:16:55;;;;;;;80.47;44.90;;;;;;;;;;5011683;28;20176;-53
2022/09/18 05:19:21;;;;;;;110.23;52.93;;;;;;;;;;5015868;28;20207;-53
2022/09/18 05:21:50;;;;;;;86.90;42.03;;;;;;;;;;5020871;28;20223;-53
2022/09/18 05:24:16;;;;;;;157.30;64.43;;;;;;;;;;5015770;28;20703;-53
2022/09/18 05:26:43;;;;;;;232.47;80.67;;;;;;;;;;5002968;28;20629;-53
2022/09/18 05:29:09;;;;;;;146.67;59.27;;;;;;;;;;4998746;28;20188;-53
2022/09/18 05:31:35;;;;;;;120.00;54.03;;;;;;;;;;4998035;28;20352;-54
2022/09/18 05:34:01;;;;;;;186.13;68.13;;;;;;;;;;4988930;28;20573;-53
2022/09/18 05:36:27;;;;;;;250.07;86.40;;;;;;;;;;5007517;28;20176;-53
2022/09/18 05:38:53;;;;;;;79.63;43.57;;;;;;;;;;5009464;28;20180;-53
2022/09/18 05:41:19;;;;;;;299.77;104.10;;;;;;;;;;4986920;28;20201;-53
2022/09/18 05:43:45;;;;;;;204.07;73.27;;;;;;;;;;4974724;28;20189;-53
2022/09/18 05:46:13;;;;;;;89.50;41.27;;;;;;;;;;4997086;28;20355;-53
2022/09/18 05:48:39;;;;;;;123.13;50.63;;;;;;;;;;5001297;28;20188;-54
2022/09/18 05:51:05;;;;;;;108.00;48.50;;;;;;;;;;5006715;28;20219;-53
2022/09/18 05:53:31;;;;;;;102.50;45.17;;;;;;;;;;5012911;28;20679;-53
2022/09/18 05:55:58;;;;;;;137.80;53.97;;;;;;;;;;5005371;28;20196;-53
2022/09/18 05:58:24;;;;;;;160.73;61.50;;;;;;;;;;5014805;28;20181;-53
2022/09/18 06:00:51;;;;;;;190.27;68.27;;;;;;;;;;5007746;28;20687;-53
2022/09/18 06:03:17;;;;;;;151.60;57.37;;;;;;;;;;5004714;28;20196;-53
2022/09/18 06:05:50;;;;;;;137.83;55.03;;;;;;;;;;5016747;28;20290;-53
2022/09/18 06:08:16;;;;;;;172.03;61.87;;;;;;;;;;5001747;28;23321;-53
2022/09/18 06:10:42;;;;;;;164.63;59.80;;;;;;;;;;5000461;28;20533;-54
2022/09/18 06:13:09;;;;;;;114.27;49.10;;;;;;;;;;5002218;28;20408;-53
2022/09/18 06:15:35;;;;;;;191.70;68.40;;;;;;;;;;5016302;28;20692;-53
2022/09/18 06:18:01;;;;;;;141.03;53.60;;;;;;;;;;5007100;28;20283;-53
2022/09/18 06:20:27;;;;;;;179.73;64.50;;;;;;;;;;5009848;28;21573;-54
2022/09/18 06:22:53;;;;;;;140.73;55.27;;;;;;;;;;5007016;28;20188;-53
2022/09/18 06:25:20;;;;;;;68.83;37.30;;;;;;;;;;5018763;28;20262;-53
2022/09/18 06:27:57;;;;;;;117.47;48.63;;;;;;;;;;5018076;28;20584;-53
2022/09/18 06:30:23;;;;;;;160.40;56.67;;;;;;;;;;5008313;28;20211;-54
2022/09/18 06:32:49;;;;;;;200.10;69.60;;;;;;;;;;5011747;28;20183;-53
2022/09/18 06:35:15;;;;;;;93.87;40.60;;;;;;;;;;5005955;28;20227;-53
2022/09/18 06:37:40;;;;;;;71.83;32.83;;;;;;;;;;5016761;28;20266;-52
2022/09/18 06:40:06;;;;;;;190.53;66.17;;;;;;;;;;5002633;28;20195;-52
2022/09/18 06:42:32;;;;;;;107.63;42.57;;;;;;;;;;5011370;28;20184;-53
2022/09/18 06:44:58;;;;;;;72.87;35.60;;;;;;;;;;5009789;28;20219;-53
2022/09/18 06:47:24;;;;;;;175.13;62.60;;;;;;;;;;5005432;28;20540;-53
2022/09/18 06:49:50;;;;;;;120.63;45.00;;;;;;;;;;5006513;28;20184;-53
2022/09/18 06:52:16;;;;;;;134.00;48.57;;;;;;;;;;5011849;28;20284;-53
2022/09/18 06:54:42;;;;;;;81.07;35.43;;;;;;;;;;5024354;28;20210;-53
2022/09/18 06:57:08;;;;;;;85.20;39.27;;;;;;;;;;5020827;28;20180;-54
2022/09/18 06:59:34;;;;;;;54.60;31.07;;;;;;;;;;5018045;28;20246;-54
2022/09/18 07:02:00;;;;;;;96.40;39.90;;;;;;;;;;5010789;28;20199;-54
2022/09/18 07:04:26;;;;;;;74.53;36.70;;;;;;;;;;5017380;28;20247;-54
2022/09/18 07:06:52;;;;;;;82.73;36.77;;;;;;;;;;5012072;28;20736;-54
2022/09/18 07:09:17;;;;;;;98.50;47.03;;;;;;;;;;5014072;28;20193;-54
2022/09/18 07:11:43;;;;;;;171.53;60.30;;;;;;;;;;5012381;28;20208;-53
2022/09/18 07:14:09;;;;;;;93.57;42.70;;;;;;;;;;5011418;28;20204;-53
2022/09/18 07:16:35;;;;;;;108.30;44.47;;;;;;;;;;5012708;28;20640;-54
2022/09/18 07:19:01;;;;;;;164.10;60.00;;;;;;;;;;5022139;28;20187;-54
2022/09/18 07:21:27;;;;;;;83.87;42.67;;;;;;;;;;5022346;28;20742;-54
2022/09/18 07:23:53;;;;;;;146.23;62.00;;;;;;;;;;5019738;28;20553;-53
2022/09/18 07:26:19;;;;;;;100.47;46.77;;;;;;;;;;5022324;28;20218;-53
2022/09/18 07:28:45;;;;;;;161.13;68.83;;;;;;;;;;5011171;28;21848;-53
2022/09/18 07:31:11;;;;;;;91.47;51.90;;;;;;;;;;5011489;28;20212;-53
2022/09/18 07:33:39;;;;;;;174.03;71.17;;;;;;;;;;5006954;28;20177;-53
2022/09/18 07:36:05;;;;;;;69.40;40.20;;;;;;;;;;5005496;28;20204;-52
2022/09/18 07:38:33;;;;;;;145.90;63.00;;;;;;;;;;5020593;28;20180;-52
2022/09/18 07:41:01;;;;;;;119.17;56.57;;;;;;;;;;5008091;28;20208;-52
2022/09/18 07:43:27;;;;;;;118.83;55.23;;;;;;;;;;5024073;28;20211;-52
2022/09/18 07:45:53;;;;;;;125.50;60.03;;;;;;;;;;5017858;28;20240;-52
2022/09/18 07:48:19;;;;;;;153.07;68.50;;;;;;;;;;5009736;28;20192;-53
2022/09/18 07:50:45;;;;;;;148.43;63.93;;;;;;;;;;5016203;28;20546;-53
2022/09/18 07:53:11;;;;;;;119.10;58.97;;;;;;;;;;5016821;28;20255;-53
2022/09/18 07:55:37;;;;;;;199.30;80.13;;;;;;;;;;5014501;28;20200;-53
2022/09/18 07:58:04;;;;;;;160.80;70.77;;;;;;;;;;5013982;28;20195;-53
2022/09/18 08:00:33;;;;;;;135.67;64.97;;;;;;;;;;5009636;28;20208;-54
2022/09/18 08:03:03;;;;;;;161.93;81.97;;;;;;;;;;5005211;28;20185;-53
2022/09/18 08:05:29;;;;;;;133.13;73.53;;;;;;;;;;5009804;28;20208;-53
2022/09/18 08:07:54;;;;;;;128.63;66.10;;;;;;;;;;5010918;28;20211;-53
2022/09/18 08:10:20;;;;;;;110.80;57.10;;;;;;;;;;5013295;28;20212;-53
2022/09/18 08:12:46;;;;;;;90.87;52.97;;;;;;;;;;5006045;28;20268;-53
2022/09/18 08:15:12;;;;;;;114.83;64.37;;;;;;;;;;5001179;28;20222;-53
2022/09/18 08:17:45;;;;;;;87.63;53.80;;;;;;;;;;5017471;28;20612;-53
2022/09/18 08:20:11;;;;;;;109.83;57.40;;;;;;;;;;5015217;28;20192;-54
2022/09/18 08:22:40;;;;;;;230.20;91.70;;;;;;;;;;5007732;28;20184;-53
2022/09/18 08:25:07;;;;;;;141.93;69.50;;;;;;;;;;5014972;28;20207;-53
2022/09/18 08:27:40;;;;;;;202.13;87.93;;;;;;;;;;5005585;28;21151;-53
2022/09/18 08:30:07;;;;;;;163.37;80.07;;;;;;;;;;5005625;28;20184;-53
2022/09/18 08:32:33;;;;;;;185.60;83.53;;;;;;;;;;5014569;28;20263;-53
2022/09/18 08:35:00;;;;;;;109.63;65.37;;;;;;;;;;5014898;28;20208;-53
2022/09/18 08:37:26;;;;;;;148.27;74.47;;;;;;;;;;5010722;28;20199;-53
2022/09/18 08:39:52;;;;;;;100.50;58.90;;;;;;;;;;5019467;28;20238;-53
2022/09/18 08:42:36;;;;;;;181.10;84.37;;;;;;;;;;5009573;28;23502;-53
2022/09/18 08:45:18;;;;;;;160.33;79.73;;;;;;;;;;4988229;28;20200;-53
2022/09/18 08:47:49;;;;;;;91.07;61.70;;;;;;;;;;5000801;28;20193;-53
2022/09/18 08:50:23;;;;;;;214.70;101.37;;;;;;;;;;5004249;28;20577;-54
2022/09/18 08:52:51;;;;;;;68.33;51.63;;;;;;;;;;5008485;28;20457;-53
2022/09/18 08:55:29;;;;;;;92.87;64.87;;;;;;;;;;5028390;28;20247;-53
2022/09/18 08:58:10;;;;;;;201.73;92.13;;;;;;;;;;5007223;28;20220;-53
2022/09/18 09:00:54;;;;;;;245.30;104.30;;;;;;;;;;4995483;28;20208;-53
2022/09/18 09:03:26;;;;;;;169.53;84.20;;;;;;;;;;5006164;28;20188;-54
2022/09/18 09:05:55;;;;;;;258.33;107.73;;;;;;;;;;5002701;28;20229;-53
2022/09/18 09:08:29;;;;;;;160.70;86.17;;;;;;;;;;4994664;28;20319;-53
2022/09/18 09:11:05;;;;;;;94.83;66.50;;;;;;;;;;5006672;28;20226;-53
2022/09/18 09:13:54;;;;;;;228.23;109.33;;;;;;;;;;4999265;28;20183;-53
2022/09/18 09:16:39;;;;;;;142.23;76.57;;;;;;;;;;4997314;28;20212;-53
2022/09/18 09:19:19;;;;;;;179.07;93.10;;;;;;;;;;5004082;28;20681;-53
2022/09/18 09:21:52;;;;;;;175.67;76.23;;;;;;;;;;5017413;28;20196;-53
2022/09/18 09:24:30;;;;;;;125.10;78.80;;;;;;;;;;5019742;28;20417;-53
2022/09/18 09:26:57;;;;;;;178.13;95.97;;;;;;;;;;5014614;28;20556;-53
2022/09/18 09:29:27;;;;;;;97.07;71.00;;;;;;;;;;5008328;28;20196;-53
2022/09/18 09:31:55;;;;;;;209.87;104.23;;;;;;;;;;4999550;28;20695;-53
2022/09/18 09:34:24;;;;;;;184.80;98.77;;;;;;;;;;5004565;28;20224;-53
2022/09/18 09:36:51;;;;;;;343.97;150.67;;;;;;;;;;4998701;28;20184;-54
2022/09/18 09:39:23;;;;;;;179.80;99.27;;;;;;;;;;5005640;28;20543;-53
2022/09/18 09:42:08;;;;;;;190.20;98.77;;;;;;;;;;5002910;28;20258;-53
2022/09/18 09:44:50;;;;;;;122.43;79.03;;;;;;;;;;4992999;28;20208;-54
2022/09/18 09:47:24;;;;;;;102.47;73.90;;;;;;;;;;5002119;28;20196;-53
2022/09/18 09:49:57;;;;;;;241.00;116.53;;;;;;;;;;4994059;28;20191;-53
2022/09/18 09:52:24;;;;;;;166.30;94.17;;;;;;;;;;4998157;28;20192;-53
2022/09/18 09:55:01;;;;;;;217.57;115.90;;;;;;;;;;4993493;28;20231;-53
2022/09/18 09:57:39;;;;;;;228.87;111.03;;;;;;;;;;4995228;28;20190;-54
2022/09/18 10:00:08;;;;;;;220.03;113.57;;;;;;;;;;5000030;28;20220;-53
2022/09/18 10:02:40;;;;;;;283.90;127.80;;;;;;;;;;4998227;28;20285;-53
2022/09/18 10:05:06;;;;;;;162.70;91.60;;;;;;;;;;4995720;28;20286;-53
2022/09/18 10:07:38;;;;;;;157.50;91.80;;;;;;;;;;5000625;28;20192;-53
2022/09/18 10:10:04;;;;;;;196.27;103.83;;;;;;;;;;5006109;28;20917;-54
2022/09/18 10:12:36;;;;;;;152.30;90.07;;;;;;;;;;5004114;28;20471;-54
2022/09/18 10:15:11;;;;;;;193.57;105.10;;;;;;;;;;5002218;28;20201;-54
2022/09/18 10:17:40;;;;;;;217.20;114.00;;;;;;;;;;4994300;28;20218;-54
2022/09/18 10:20:07;;;;;;;230.83;116.50;;;;;;;;;;5004217;28;20215;-53
2022/09/18 10:22:34;;;;;;;186.17;101.53;;;;;;;;;;4993482;28;20191;-53
2022/09/18 10:25:03;;;;;;;170.32;97.80;;;;;;;;;;5000163;28;20228;-53
2022/09/18 10:27:29;;;;;;;139.52;87.88;;;;;;;;;;4998538;28;20193;-54
2022/09/18 10:29:55;;;;;;;166.43;101.13;;;;;;;;;;5006310;28;20391;-54
2022/09/18 10:32:37;;;;;;;225.40;118.93;;;;;;;;;;4997342;28;20203;-53
2022/09/18 10:35:23;;;;;;;226.40;118.03;;;;;;;;;;4994716;28;20215;-54
2022/09/18 10:37:49;;;;;;;209.55;114.07;;;;;;;;;;4993254;28;20537;-54
2022/09/18 10:40:38;;;;;;;200.73;112.50;;;;;;;;;;4994103;28;20189;-53
2022/09/18 10:43:06;;;;;;;179.00;106.93;;;;;;;;;;5004870;28;20653;-54
2022/09/18 10:45:40;;;;;;;170.95;104.20;;;;;;;;;;5010057;28;20208;-54
2022/09/18 10:48:17;;;;;;;221.35;118.35;;;;;;;;;;5006285;28;20444;-54
2022/09/18 10:50:52;;;;;;;239.27;124.53;;;;;;;;;;4991878;28;20209;-54
2022/09/18 10:53:27;;;;;;;164.55;94.07;;;;;;;;;;5005364;28;20215;-53
2022/09/18 10:55:53;;;;;;;265.37;136.27;;;;;;;;;;4993857;28;20687;-54
2022/09/18 10:58:25;;;;;;;211.63;119.28;;;;;;;;;;4995194;28;20185;-53
2022/09/18 11:01:02;;;;;;;228.47;122.97;;;;;;;;;;4994729;28;20200;-54
2022/09/18 11:03:39;;;;;;;222.80;118.60;;;;;;;;;;5000485;28;20352;-54
2022/09/18 11:06:09;;;;;;;173.60;106.87;;;;;;;;;;5006562;28;20592;-54
2022/09/18 11:08:36;;;;;;;191.00;119.13;;;;;;;;;;4997290;28;20526;-54
2022/09/18 11:11:05;;;;;;;232.05;124.75;;;;;;;;;;4999144;28;20239;-54
2022/09/18 11:13:31;;;;;;;213.83;118.87;;;;;;;;;;4996617;28;20641;-53
2022/09/18 11:15:58;;;;;;;204.45;119.70;;;;;;;;;;4992096;28;21310;-53
2022/09/18 11:18:24;;;;;;;234.32;131.60;;;;;;;;;;4995916;28;20597;-54
2022/09/18 11:20:51;;;;;;;336.92;169.93;;;;;;;;;;5003679;28;20180;-54
2022/09/18 11:23:27;;;;;;;237.07;138.50;;;;;;;;;;4989279;28;20282;-54
2022/09/18 11:26:09;;;;;;;251.60;139.98;;;;;;;;;;4967561;28;20219;-54
2022/09/18 11:28:35;;;;;;;191.40;111.78;;;;;;;;;;4998668;28;20180;-54
2022/09/18 11:31:04;;;;;;;156.57;105.85;;;;;;;;;;5002985;28;20204;-54
2022/09/18 11:33:31;;;;;;;285.90;146.57;;;;;;;;;;5002877;28;21047;-53
2022/09/18 11:36:02;;;;;;;190.37;119.13;;;;;;;;;;4999991;28;20215;-54
2022/09/18 11:38:28;;;;;;;192.70;116.57;;;;;;;;;;4993113;28;20246;-54
2022/09/18 11:40:56;;;;;;;167.32;110.10;;;;;;;;;;4993269;28;20192;-54
2022/09/18 11:43:23;;;;;;;140.77;99.50;;;;;;;;;;5012439;28;20192;-54
2022/09/18 11:46:08;;;;;;;258.73;144.57;;;;;;;;;;5003014;28;20767;-54
2022/09/18 11:48:36;;;;;;;215.68;125.28;;;;;;;;;;4995126;28;20835;-54
2022/09/18 11:51:04;;;;;;;149.55;106.95;;;;;;;;;;4993497;28;20828;-54
2022/09/18 11:53:38;;;;;;;270.48;143.60;;;;;;;;;;4994574;28;20192;-54
2022/09/18 11:56:08;;;;;;;192.98;119.57;;;;;;;;;;4993522;28;20293;-54
2022/09/18 11:58:46;;;;;;;160.47;109.93;;;;;;;;;;4997861;28;20259;-53
2022/09/18 12:01:18;;;;;;;158.30;109.93;;;;;;;;;;5005130;28;20196;-54
2022/09/18 12:03:51;;;;;;;228.05;130.48;;;;;;;;;;5011930;28;20828;-54
2022/09/18 12:06:22;;;;;;;242.55;136.50;;;;;;;;;;4990642;28;20770;-53
2022/09/18 12:09:07;;;;;;;183.00;119.35;;;;;;;;;;5001533;28;20827;-53
2022/09/18 12:11:48;;;;;;;205.15;125.25;;;;;;;;;;5007561;28;20586;-54
2022/09/18 12:14:20;;;;;;;182.30;116.63;;;;;;;;;;4983874;28;20205;-54
2022/09/18 12:16:49;;;;;;;273.55;153.38;;;;;;;;;;5008833;28;20180;-54
2022/09/18 12:19:15;;;;;;;172.30;114.57;;;;;;;;;;5011424;28;20602;-53
2022/09/18 12:21:50;;;;;;;149.13;104.38;;;;;;;;;;5014009;28;20243;-53
2022/09/18 12:24:17;;;;;;;148.20;105.05;;;;;;;;;;5018432;28;20211;-53
2022/09/18 12:26:49;;;;;;;163.02;110.22;;;;;;;;;;5017370;28;20542;-53
2022/09/18 12:29:33;;;;;;;148.05;105.82;;;;;;;;;;5020695;28;20760;-53
2022/09/18 12:32:18;;;;;;;128.00;96.37;;;;;;;;;;5024668;28;20210;-53
2022/09/18 12:34:52;;;;;;;126.00;94.88;;;;;;;;;;5025463;28;20228;-53
2022/09/18 12:37:28;;;;;;;170.68;108.00;;;;;;;;;;5023664;28;20749;-53
2022/09/18 12:40:01;;;;;;;180.85;109.80;;;;;;;;;;5007358;28;20192;-53
2022/09/18 12:42:34;;;;;;;173.15;104.18;;;;;;;;;;4998972;28;20541;-53
2022/09/18 12:45:00;;;;;;;215.37;122.43;;;;;;;;;;5009313;28;20208;-53
2022/09/18 12:47:33;;;;;;;149.30;95.67;;;;;;;;;;5014368;28;20192;-53
2022/09/18 12:49:59;;;;;;;162.45;101.65;;;;;;;;;;5001956;28;20188;-54
2022/09/18 12:52:44;;;;;;;125.68;85.05;;;;;;;;;;5012707;28;20671;-54
2022/09/18 12:55:13;;;;;;;166.00;105.85;;;;;;;;;;5006509;28;20209;-54
2022/09/18 12:58:02;;;;;;;229.02;130.18;;;;;;;;;;5002217;28;20193;-54
2022/09/18 13:00:28;;;;;;;251.32;133.35;;;;;;;;;;5006193;28;20208;-53
2022/09/18 13:03:13;;;;;;;170.90;103.05;;;;;;;;;;5007223;28;20776;-54
2022/09/18 13:05:41;;;;;;;183.38;107.90;;;;;;;;;;5008943;28;20196;-54
2022/09/18 13:08:27;;;;;;;235.90;118.23;;;;;;;;;;5002557;28;20184;-53
2022/09/18 13:11:01;;;;;;;200.82;107.80;;;;;;;;;;5003765;28;20294;-53
2022/09/18 13:13:32;;;;;;;160.73;98.43;;;;;;;;;;5004956;28;20180;-53
2022/09/18 13:16:06;;;;;;;216.25;122.85;;;;;;;;;;5010692;28;20350;-54
2022/09/18 13:18:37;;;;;;;240.03;133.03;;;;;;;;;;5001755;28;20640;-54
2022/09/18 13:21:06;;;;;;;359.67;176.87;;;;;;;;;;5011550;28;20734;-54
2022/09/18 13:23:34;;;;;;;366.03;171.70;;;;;;;;;;5010566;28;20185;-54
2022/09/18 13:26:01;;;;;;;408.53;188.37;;;;;;;;;;5005910;28;20205;-54
2022/09/18 13:28:28;;;;;;;459.90;211.93;;;;;;;;;;5000705;28;20238;-54
2022/09/18 13:31:15;;;;;;;405.83;195.93;;;;;;;;;;5006766;28;20208;-54
2022/09/18 13:33:50;;;;;;;417.67;201.27;;;;;;;;;;5006283;28;20188;-54
2022/09/18 13:36:21;;;;;;;345.50;166.77;;;;;;;;;;5012549;28;20343;-54
2022/09/18 13:38:49;;;;;;;425.83;210.03;;;;;;;;;;5006195;28;20331;-54
2022/09/18 13:41:15;;;;;;;422.97;214.80;;;;;;;;;;5002467;28;20573;-52
2022/09/18 13:43:45;;;;;;;471.52;237.40;;;;;;;;;;5013284;28;20751;-50
2022/09/18 13:46:28;;;;;;;370.70;193.80;;;;;;;;;;5013062;28;20695;-52
2022/09/18 13:48:55;;;;;;;480.65;234.05;;;;;;;;;;5001749;28;20198;-53
2022/09/18 13:51:29;;;;;;;463.98;240.68;;;;;;;;;;4998713;28;20204;-54
2022/09/18 13:54:16;;;;;;;492.23;254.10;;;;;;;;;;5001394;28;20180;-53
2022/09/18 13:57:01;;;;;;;410.30;225.10;;;;;;;;;;5009357;28;20188;-53
2022/09/18 13:59:44;;;;;;;469.88;246.82;;;;;;;;;;4996839;28;20417;-54
2022/09/18 14:02:28;;;;;;;433.35;228.57;;;;;;;;;;5007925;28;20425;-57
2022/09/18 14:05:05;;;;;;;466.73;251.63;;;;;;;;;;5006465;28;20268;-57
2022/09/18 14:07:31;;;;;;;479.03;250.93;;;;;;;;;;5004887;28;20188;-58
2022/09/18 14:09:58;;;;;;;433.57;218.50;;;;;;;;;;5009081;28;20194;-57
2022/09/18 14:12:25;;;;;;;434.40;213.13;;;;;;;;;;5003698;28;20260;-57
2022/09/18 14:14:57;;;;;;;449.77;220.05;;;;;;;;;;5004126;28;20200;-58
2022/09/18 14:17:24;;;;;;;421.75;204.85;;;;;;;;;;4996225;28;22455;-57